createdAt,value
2022-10-18T00:00:38.749Z,15.70
2022-10-18T00:03:05.511Z,12.50
2022-10-18T00:05:32.577Z,8.93
2022-10-18T00:07:59.546Z,13.30
2022-10-18T00:10:26.289Z,10.55
2022-10-18T00:12:53.054Z,16.17
2022-10-18T00:15:19.777Z,9.73
2022-10-18T00:17:46.420Z,12.27
2022-10-18T00:20:14.533Z,15.55
2022-10-18T00:22:41.825Z,9.25
2022-10-18T00:25:09.711Z,16.60
2022-10-18T00:27:36.459Z,13.40
2022-10-18T00:30:04.023Z,9.77
2022-10-18T00:32:30.973Z,13.75
2022-10-18T00:34:57.882Z,11.32
2022-10-18T00:37:24.680Z,12.05
2022-10-18T00:42:25.429Z,11.60
2022-10-18T00:44:51.999Z,13.27
2022-10-18T00:47:19.811Z,10.55
2022-10-18T00:49:54.020Z,10.50
2022-10-18T00:52:53.422Z,10.68
2022-10-18T00:55:20.512Z,13.77
2022-10-18T00:57:47.894Z,10.50
2022-10-18T01:00:18.240Z,11.73
2022-10-18T01:02:46.456Z,10.63
2022-10-18T01:05:16.024Z,10.52
2022-10-18T01:07:48.582Z,11.68
2022-10-18T01:10:33.823Z,8.57
2022-10-18T01:13:35.118Z,12.07
2022-10-18T01:16:13.685Z,10.60
2022-10-18T01:18:49.122Z,9.48
2022-10-18T01:21:31.214Z,23.02
2022-10-18T01:24:36.564Z,12.10
2022-10-18T01:27:32.357Z,21.50
2022-10-18T01:30:02.144Z,34.22
2022-10-18T01:32:44.819Z,11.57
2022-10-18T01:35:17.022Z,10.43
2022-10-18T01:37:47.462Z,12.93
2022-10-18T01:40:18.456Z,60.05
2022-10-18T01:42:47.475Z,13.10
2022-10-18T01:45:15.731Z,15.70
2022-10-18T01:47:45.551Z,31.83
2022-10-18T01:50:12.689Z,36.35
2022-10-18T01:52:52.522Z,19.42
2022-10-18T01:55:32.080Z,19.38
2022-10-18T01:58:09.667Z,15.27
2022-10-18T02:00:42.882Z,17.02
2022-10-18T02:03:15.061Z,59.58
2022-10-18T02:05:54.465Z,33.80
2022-10-18T02:08:27.063Z,12.77
2022-10-18T02:11:05.781Z,9.88
2022-10-18T02:13:43.867Z,13.13
2022-10-18T02:16:19.651Z,17.88
2022-10-18T02:18:57.793Z,19.08
2022-10-18T02:21:25.939Z,17.45
2022-10-18T02:23:53.331Z,15.43
2022-10-18T02:26:20.175Z,30.67
2022-10-18T02:28:46.994Z,27.17
2022-10-18T02:31:50.396Z,16.73
2022-10-18T02:34:23.183Z,15.13
2022-10-18T02:36:57.450Z,13.75
2022-10-18T02:39:36.194Z,9.30
2022-10-18T02:42:08.337Z,11.18
2022-10-18T02:44:36.314Z,15.07
2022-10-18T02:47:03.838Z,29.50
2022-10-18T02:49:30.544Z,21.15
2022-10-18T02:51:57.318Z,11.30
2022-10-18T02:54:24.153Z,28.17
2022-10-18T02:56:51.070Z,23.05
2022-10-18T02:59:18.031Z,31.83
2022-10-18T03:01:44.729Z,13.57
2022-10-18T03:04:11.625Z,11.20
2022-10-18T03:06:38.418Z,12.95
2022-10-18T03:09:06.182Z,35.83
2022-10-18T03:11:33.095Z,31.98
2022-10-18T03:13:59.820Z,27.55
2022-10-18T03:16:26.539Z,18.00
2022-10-18T03:18:53.137Z,13.02
2022-10-18T03:21:19.987Z,12.00
2022-10-18T03:23:46.617Z,12.30
2022-10-18T03:26:13.311Z,17.83
2022-10-18T03:28:40.086Z,18.48
2022-10-18T03:31:06.817Z,46.50
2022-10-18T03:33:33.684Z,36.53
2022-10-18T03:36:00.396Z,27.98
2022-10-18T03:38:27.214Z,14.15
2022-10-18T03:40:53.998Z,14.20
2022-10-18T03:43:20.765Z,13.63
2022-10-18T03:45:47.452Z,13.05
2022-10-18T03:48:14.306Z,13.38
2022-10-18T03:50:41.128Z,11.95
2022-10-18T03:53:07.860Z,13.05
2022-10-18T03:55:34.592Z,11.73
2022-10-18T03:58:01.239Z,13.70
2022-10-18T04:00:28.082Z,18.42
2022-10-18T04:02:55.968Z,13.90
2022-10-18T04:05:24.235Z,14.13
2022-10-18T04:07:50.912Z,21.23
2022-10-18T04:10:18.731Z,17.60
2022-10-18T04:12:45.589Z,26.95
2022-10-18T04:15:12.432Z,37.20
2022-10-18T04:17:39.185Z,17.20
2022-10-18T04:20:06.619Z,16.58
2022-10-18T04:22:33.351Z,14.98
2022-10-18T04:25:00.165Z,13.48
2022-10-18T04:27:26.879Z,14.80
2022-10-18T04:29:53.590Z,15.75
2022-10-18T04:32:20.180Z,13.32
2022-10-18T04:34:46.888Z,13.30
2022-10-18T04:37:13.583Z,16.55
2022-10-18T04:39:40.371Z,23.23
2022-10-18T04:42:06.986Z,15.85
2022-10-18T04:44:34.430Z,15.32
2022-10-18T04:47:01.141Z,11.10
2022-10-18T04:49:27.725Z,12.73
2022-10-18T04:51:56.002Z,11.30
2022-10-18T04:54:23.984Z,11.00
2022-10-18T04:56:53.770Z,14.40
2022-10-18T04:59:20.763Z,11.85
2022-10-18T05:01:47.568Z,15.30
2022-10-18T05:04:14.488Z,12.85
2022-10-18T05:06:41.451Z,15.32
2022-10-18T05:09:08.212Z,14.80
2022-10-18T05:11:34.869Z,11.23
2022-10-18T05:14:01.504Z,14.27
2022-10-18T05:16:28.498Z,14.15
2022-10-18T05:18:55.147Z,31.30
2022-10-18T05:21:21.978Z,31.38
2022-10-18T05:23:48.603Z,23.65
2022-10-18T05:26:15.242Z,46.38
2022-10-18T05:28:42.030Z,15.43
2022-10-18T05:31:11.807Z,12.75
2022-10-18T05:33:38.699Z,15.23
2022-10-18T05:36:05.886Z,12.38
2022-10-18T05:38:32.843Z,9.55
2022-10-18T05:41:00.003Z,13.48
2022-10-18T05:43:30.107Z,13.55
2022-10-18T05:45:56.944Z,13.05
2022-10-18T05:48:23.884Z,22.35
2022-10-18T05:50:50.719Z,26.20
2022-10-18T05:53:36.695Z,16.15
2022-10-18T05:56:04.648Z,13.82
2022-10-18T05:58:31.534Z,22.15
2022-10-18T06:01:00.190Z,12.43
2022-10-18T06:03:27.742Z,10.48
2022-10-18T06:06:01.883Z,16.88
2022-10-18T06:08:28.640Z,33.63
2022-10-18T06:10:55.461Z,16.90
2022-10-18T06:13:22.456Z,16.80
2022-10-18T06:15:49.293Z,17.48
2022-10-18T06:18:16.487Z,14.57
2022-10-18T06:20:43.139Z,17.20
2022-10-18T06:23:09.821Z,16.75
2022-10-18T06:25:36.405Z,13.43
2022-10-18T06:28:07.807Z,14.73
2022-10-18T06:30:37.148Z,18.52
2022-10-18T06:33:03.810Z,17.15
2022-10-18T06:35:30.547Z,12.32
2022-10-18T06:37:57.786Z,14.98
2022-10-18T06:40:24.733Z,17.10
2022-10-18T06:43:00.703Z,17.13
2022-10-18T06:45:37.368Z,14.38
2022-10-18T06:48:04.353Z,14.18
2022-10-18T06:50:31.088Z,15.07
2022-10-18T06:52:58.311Z,14.82
2022-10-18T06:55:25.054Z,11.25
2022-10-18T06:57:53.226Z,11.77
2022-10-18T07:00:20.092Z,16.17
2022-10-18T07:02:46.804Z,12.75
2022-10-18T07:05:13.527Z,13.75
2022-10-18T07:07:40.131Z,14.02
2022-10-18T07:10:09.263Z,14.18
2022-10-18T07:12:37.899Z,18.75
2022-10-18T07:15:09.122Z,15.15
2022-10-18T07:17:36.258Z,13.85
2022-10-18T07:20:04.372Z,13.40
2022-10-18T07:22:31.086Z,18.38
2022-10-18T07:24:57.735Z,9.98
2022-10-18T07:27:24.415Z,14.15
2022-10-18T07:29:51.145Z,11.85
2022-10-18T07:32:17.764Z,13.85
2022-10-18T07:34:44.362Z,10.98
2022-10-18T07:37:11.043Z,12.77
2022-10-18T07:39:37.659Z,11.00
2022-10-18T07:42:04.291Z,15.77
2022-10-18T07:44:31.048Z,14.77
2022-10-18T07:46:57.695Z,11.02
2022-10-18T07:49:24.447Z,12.93
2022-10-18T07:51:51.233Z,13.05
2022-10-18T07:54:18.124Z,13.32
2022-10-18T07:56:44.796Z,14.38
2022-10-18T07:59:11.788Z,11.13
2022-10-18T08:01:38.462Z,21.40
2022-10-18T08:04:07.949Z,13.32
2022-10-18T08:06:36.794Z,14.30
2022-10-18T08:09:04.123Z,12.45
2022-10-18T08:11:31.187Z,16.27
2022-10-18T08:13:57.864Z,16.52
2022-10-18T08:16:28.045Z,21.10
2022-10-18T08:18:58.134Z,14.68
2022-10-18T08:21:25.063Z,21.15
2022-10-18T08:23:51.830Z,16.83
2022-10-18T08:26:21.252Z,12.57
2022-10-18T08:28:58.457Z,14.00
2022-10-18T08:31:31.283Z,15.50
2022-10-18T08:33:57.976Z,16.52
2022-10-18T08:36:24.880Z,14.63
2022-10-18T08:38:52.076Z,15.55
2022-10-18T08:42:02.354Z,16.75
2022-10-18T08:44:32.396Z,17.17
2022-10-18T08:47:12.063Z,14.32
2022-10-18T08:49:48.180Z,12.32
2022-10-18T08:52:26.867Z,16.63
2022-10-18T08:55:02.993Z,13.32
2022-10-18T08:57:31.399Z,11.48
2022-10-18T08:59:58.320Z,14.55
2022-10-18T09:02:34.267Z,13.32
2022-10-18T09:05:20.383Z,18.58
2022-10-18T09:08:16.624Z,9.55
2022-10-18T09:13:52.066Z,12.82
2022-10-18T09:16:45.528Z,14.00
2022-10-18T09:19:29.258Z,18.77
2022-10-18T09:22:04.009Z,12.95
2022-10-18T09:24:38.785Z,13.35
2022-10-18T09:27:14.281Z,13.20
2022-10-18T09:30:16.233Z,11.50
2022-10-18T09:32:59.380Z,17.45
2022-10-18T09:35:33.985Z,13.43
2022-10-18T09:38:09.385Z,15.43
2022-10-18T09:40:47.132Z,14.07
2022-10-18T09:43:23.042Z,14.43
2022-10-18T09:45:52.407Z,21.08
2022-10-18T09:48:34.742Z,15.80
2022-10-18T09:51:06.162Z,15.65
2022-10-18T09:53:48.905Z,16.50
2022-10-18T09:56:21.586Z,17.65
2022-10-18T09:58:51.398Z,20.98
2022-10-18T10:01:26.910Z,18.45
2022-10-18T10:03:53.664Z,17.17
2022-10-18T10:06:31.163Z,13.68
2022-10-18T10:09:14.795Z,15.05
2022-10-18T10:11:50.289Z,16.38
2022-10-18T10:14:17.894Z,14.60
2022-10-18T10:16:58.389Z,13.88
2022-10-18T10:19:34.583Z,14.48
2022-10-18T10:22:10.508Z,17.20
2022-10-18T10:24:49.854Z,15.10
2022-10-18T10:27:35.688Z,21.52
2022-10-18T10:30:07.066Z,15.48
2022-10-18T10:32:47.464Z,15.10
2022-10-18T10:35:53.217Z,13.93
2022-10-18T10:38:26.057Z,14.02
2022-10-18T10:40:53.951Z,13.20
2022-10-18T10:43:43.017Z,16.10
2022-10-18T10:46:20.607Z,13.93
2022-10-18T10:48:49.390Z,14.65
2022-10-18T10:51:28.360Z,17.00
2022-10-18T10:53:57.826Z,16.70
2022-10-18T10:56:27.938Z,14.95
2022-10-18T10:58:57.885Z,14.77
2022-10-18T11:01:28.488Z,15.63
2022-10-18T11:03:58.725Z,12.27
2022-10-18T11:06:47.757Z,15.48
2022-10-18T11:09:39.245Z,15.93
2022-10-18T11:12:30.480Z,17.58
2022-10-18T11:15:28.789Z,13.52
2022-10-18T11:18:14.685Z,15.38
2022-10-18T11:20:46.216Z,13.55
2022-10-18T11:23:15.341Z,13.45
2022-10-18T11:25:54.344Z,15.63
2022-10-18T11:28:36.072Z,11.77
2022-10-18T11:31:20.975Z,13.77
2022-10-18T11:34:11.782Z,12.95
2022-10-18T11:36:56.356Z,14.07
2022-10-18T11:39:48.026Z,19.52
2022-10-18T11:42:35.608Z,13.13
2022-10-18T11:47:55.695Z,16.50
2022-10-18T11:50:28.817Z,19.85
2022-10-18T11:53:19.978Z,14.15
2022-10-18T11:56:07.958Z,14.70
2022-10-18T11:58:55.775Z,17.85
2022-10-18T12:01:35.816Z,14.30
2022-10-18T12:04:05.647Z,12.07
2022-10-18T12:09:32.655Z,14.15
2022-10-18T12:12:06.613Z,11.35
2022-10-18T12:14:40.629Z,10.75
2022-10-18T12:17:41.102Z,12.05
2022-10-18T12:20:30.466Z,14.50
2022-10-18T12:23:13.613Z,13.23
2022-10-18T12:25:45.771Z,15.68
2022-10-18T12:28:33.810Z,13.88
2022-10-18T12:31:22.063Z,14.20
2022-10-18T12:33:55.659Z,12.00
2022-10-18T12:36:22.341Z,14.25
2022-10-18T12:39:00.772Z,10.27
2022-10-18T12:41:34.659Z,11.38
2022-10-18T12:44:22.198Z,14.40
2022-10-18T12:46:51.152Z,11.65
2022-10-18T12:49:25.016Z,10.27
2022-10-18T12:51:54.239Z,12.50
2022-10-18T12:54:30.496Z,13.65
2022-10-18T12:56:59.965Z,11.70
2022-10-18T12:59:26.915Z,12.27
2022-10-18T13:01:53.532Z,12.82
2022-10-18T13:04:29.614Z,11.35
2022-10-18T13:07:05.579Z,11.88
2022-10-18T13:09:36.504Z,9.50
2022-10-18T13:12:14.936Z,11.52
2022-10-18T13:15:07.066Z,10.95
2022-10-18T13:17:42.577Z,13.23
2022-10-18T13:20:26.136Z,12.73
2022-10-18T13:23:05.503Z,12.80
2022-10-18T13:25:47.222Z,11.87
2022-10-18T13:28:34.211Z,15.95
2022-10-18T13:31:21.718Z,11.00
2022-10-18T13:33:48.824Z,13.00
2022-10-18T13:36:22.736Z,11.93
2022-10-18T13:38:50.442Z,12.27
2022-10-18T13:41:21.061Z,10.10
2022-10-18T13:43:56.525Z,15.18
2022-10-18T13:46:44.472Z,13.65
2022-10-18T13:49:14.751Z,11.57
2022-10-18T13:52:03.070Z,11.43
2022-10-18T13:54:32.666Z,14.20
2022-10-18T13:57:17.291Z,16.35
2022-10-18T13:59:47.002Z,14.93
2022-10-18T14:02:49.784Z,13.73
2022-10-18T14:05:27.735Z,14.02
2022-10-18T14:08:10.318Z,14.50
2022-10-18T14:11:01.845Z,15.50
2022-10-18T14:13:56.021Z,13.23
2022-10-18T14:16:50.425Z,13.25
2022-10-18T14:19:30.142Z,12.25
2022-10-18T14:22:11.690Z,8.93
2022-10-18T14:24:43.598Z,11.60
2022-10-18T14:27:32.997Z,11.63
2022-10-18T14:32:37.321Z,14.90
2022-10-18T14:37:53.124Z,12.32
2022-10-18T14:40:33.326Z,11.25
2022-10-18T14:43:06.709Z,10.77
2022-10-18T14:45:33.514Z,9.00
2022-10-18T14:48:18.183Z,9.02
2022-10-18T14:50:48.868Z,10.40
2022-10-18T14:53:21.122Z,9.18
2022-10-18T14:56:05.924Z,11.02
2022-10-18T14:58:34.958Z,9.65
2022-10-18T15:01:01.902Z,14.35
2022-10-18T15:03:34.296Z,10.00
2022-10-18T15:06:05.871Z,13.77
2022-10-18T15:08:43.070Z,13.75
2022-10-18T15:11:14.330Z,15.02
2022-10-18T15:13:55.428Z,14.88
2022-10-18T15:16:29.126Z,16.13
2022-10-18T15:19:28.219Z,18.73
2022-10-18T15:22:30.701Z,30.58
2022-10-18T15:25:11.730Z,30.83
2022-10-18T15:27:39.919Z,22.17
2022-10-18T15:30:17.758Z,16.52
2022-10-18T15:32:51.621Z,14.32
2022-10-18T15:35:29.164Z,12.27
2022-10-18T15:37:58.137Z,12.25
2022-10-18T15:40:24.697Z,10.50
2022-10-18T15:42:56.859Z,13.75
2022-10-18T15:45:23.590Z,15.07
2022-10-18T15:48:13.168Z,17.63
2022-10-18T15:50:50.439Z,14.57
2022-10-18T15:53:34.377Z,26.88
2022-10-18T15:56:05.611Z,13.88
2022-10-18T15:58:40.969Z,16.13
2022-10-18T16:01:15.919Z,14.65
2022-10-18T16:03:43.454Z,16.30
2022-10-18T16:06:14.569Z,20.88
2022-10-18T16:08:50.172Z,24.35
2022-10-18T16:11:23.259Z,24.77
2022-10-18T16:13:50.399Z,13.50
2022-10-18T16:16:22.871Z,12.73
2022-10-18T16:18:50.483Z,14.68
2022-10-18T16:21:21.007Z,22.38
2022-10-18T16:23:49.359Z,14.63
2022-10-18T16:26:17.537Z,16.85
2022-10-18T16:28:44.957Z,22.55
2022-10-18T16:31:22.894Z,15.27
2022-10-18T16:33:52.132Z,27.25
2022-10-18T16:36:24.282Z,15.77
2022-10-18T16:38:51.701Z,20.80
2022-10-18T16:41:18.878Z,15.90
2022-10-18T16:43:47.439Z,14.05
2022-10-18T16:46:28.644Z,16.52
2022-10-18T16:48:56.370Z,16.20
2022-10-18T16:51:23.920Z,22.88
2022-10-18T16:53:50.615Z,20.02
2022-10-18T16:56:20.407Z,19.20
2022-10-18T16:58:48.043Z,20.73
2022-10-18T17:01:17.188Z,17.70
2022-10-18T17:03:44.370Z,15.20
2022-10-18T17:06:21.233Z,17.27
2022-10-18T17:08:48.402Z,12.27
2022-10-18T17:11:16.631Z,14.77
2022-10-18T17:13:44.029Z,15.13
2022-10-18T17:16:32.096Z,16.30
2022-10-18T17:19:02.182Z,14.68
2022-10-18T17:21:29.919Z,15.63
2022-10-18T17:24:00.534Z,14.57
2022-10-18T17:26:29.731Z,15.02
2022-10-18T17:29:03.553Z,30.40
2022-10-18T17:31:31.620Z,17.95
2022-10-18T17:34:01.394Z,14.43
2022-10-18T17:36:29.216Z,12.95
2022-10-18T17:38:56.395Z,12.45
2022-10-18T17:41:23.399Z,16.33
2022-10-18T17:43:50.177Z,16.05
2022-10-18T17:46:18.093Z,14.95
2022-10-18T17:48:45.504Z,11.82
2022-10-18T17:51:15.062Z,14.05
2022-10-18T17:53:42.117Z,10.60
2022-10-18T17:56:08.806Z,20.58
2022-10-18T17:58:36.018Z,36.20
2022-10-18T18:01:32.297Z,40.50
2022-10-18T18:04:02.932Z,39.40
2022-10-18T18:06:39.154Z,14.65
2022-10-18T18:09:09.541Z,19.02
2022-10-18T18:11:37.969Z,14.77
2022-10-18T18:14:08.937Z,13.35
2022-10-18T18:16:41.543Z,14.45
2022-10-18T18:19:09.992Z,15.23
2022-10-18T18:21:37.319Z,19.63
2022-10-18T18:24:04.378Z,12.30
2022-10-18T18:26:32.642Z,10.80
2022-10-18T18:28:59.793Z,14.70
2022-10-18T18:31:29.414Z,109.28
2022-10-18T18:33:59.161Z,119.35
2022-10-18T18:36:32.526Z,116.63
2022-10-18T18:38:59.508Z,106.07
2022-10-18T18:41:27.528Z,18.45
2022-10-18T18:44:02.864Z,19.25
2022-10-18T18:46:33.305Z,15.82
2022-10-18T18:49:00.268Z,16.08
2022-10-18T18:51:26.890Z,15.60
2022-10-18T18:53:53.578Z,18.30
2022-10-18T18:56:26.156Z,12.23
2022-10-18T18:58:54.255Z,21.00
2022-10-18T19:01:29.622Z,14.23
2022-10-18T19:03:57.377Z,15.68
2022-10-18T19:06:30.315Z,16.67
2022-10-18T19:09:03.043Z,11.30
2022-10-18T19:11:33.899Z,16.10
2022-10-18T19:14:01.591Z,14.88
2022-10-18T19:16:28.178Z,12.05
2022-10-18T19:19:04.955Z,15.32
2022-10-18T19:21:42.090Z,16.00
2022-10-18T19:24:09.321Z,14.40
2022-10-18T19:26:42.757Z,12.70
2022-10-18T19:29:27.878Z,11.27
2022-10-18T19:31:56.632Z,23.63
2022-10-18T19:34:25.202Z,27.25
2022-10-18T19:36:52.365Z,19.63
2022-10-18T19:39:21.430Z,16.48
2022-10-18T19:41:50.713Z,20.77
2022-10-18T19:44:19.346Z,25.15
2022-10-18T19:46:46.623Z,15.93
2022-10-18T19:49:13.594Z,17.80
2022-10-18T19:51:40.377Z,17.88
2022-10-18T19:54:07.132Z,15.63
2022-10-18T19:56:33.934Z,14.43
2022-10-18T19:59:00.736Z,20.67
2022-10-18T20:01:28.898Z,30.88
2022-10-18T20:03:56.069Z,14.82
2022-10-18T20:06:23.254Z,29.38
2022-10-18T20:08:50.434Z,19.27
2022-10-18T20:11:20.388Z,16.35
2022-10-18T20:16:15.280Z,12.40
2022-10-18T20:18:45.315Z,18.30
2022-10-18T20:23:41.196Z,20.67
2022-10-18T20:26:09.512Z,15.27
2022-10-18T20:28:37.642Z,27.00
2022-10-18T20:31:13.222Z,26.02
2022-10-18T20:33:40.064Z,36.65
2022-10-18T20:36:15.116Z,21.23
2022-10-18T20:38:43.660Z,18.77
2022-10-18T20:41:13.464Z,35.40
2022-10-18T20:43:40.974Z,37.83
2022-10-18T20:46:10.090Z,16.30
2022-10-18T20:48:38.672Z,20.13
2022-10-18T20:51:07.337Z,14.98
2022-10-18T20:53:35.591Z,14.77
2022-10-18T20:56:08.460Z,16.45
2022-10-18T20:58:36.314Z,16.67
2022-10-18T21:01:15.222Z,14.45
2022-10-18T21:03:45.431Z,41.50
2022-10-18T21:06:13.197Z,39.40
2022-10-18T21:08:40.534Z,20.92
2022-10-18T21:11:07.965Z,22.13
2022-10-18T21:13:34.962Z,17.83
2022-10-18T21:16:03.201Z,19.92
2022-10-18T21:18:32.400Z,21.30
2022-10-18T21:21:15.870Z,19.55
2022-10-18T21:23:42.617Z,16.33
2022-10-18T21:26:14.535Z,15.25
2022-10-18T21:28:41.261Z,19.42
2022-10-18T21:31:09.711Z,15.88
2022-10-18T21:33:36.550Z,18.15
2022-10-18T21:36:03.831Z,18.92
2022-10-18T21:38:30.589Z,27.83
2022-10-18T21:40:57.279Z,26.23
2022-10-18T21:43:23.961Z,25.05
2022-10-18T21:46:00.224Z,22.70
2022-10-18T21:48:27.851Z,20.92
2022-10-18T21:50:54.905Z,23.00
2022-10-18T21:53:21.926Z,19.08
2022-10-18T21:55:49.095Z,20.58
2022-10-18T21:58:15.785Z,20.70
2022-10-18T22:00:42.518Z,25.60
2022-10-18T22:03:10.671Z,25.23
2022-10-18T22:05:37.559Z,29.52
2022-10-18T22:08:05.173Z,28.58
2022-10-18T22:10:32.440Z,25.15
2022-10-18T22:12:59.915Z,29.05
2022-10-18T22:15:26.573Z,23.02
2022-10-18T22:17:53.364Z,23.35
2022-10-18T22:20:20.048Z,24.88
2022-10-18T22:22:46.727Z,24.17
2022-10-18T22:25:13.403Z,30.95
2022-10-18T22:27:40.252Z,28.80
2022-10-18T22:30:07.318Z,31.92
2022-10-18T22:32:34.044Z,29.27
2022-10-18T22:35:00.750Z,29.20
2022-10-18T22:37:27.464Z,31.63
2022-10-18T22:39:54.206Z,32.17
2022-10-18T22:42:20.922Z,36.97
2022-10-18T22:44:47.546Z,32.78
2022-10-18T22:47:14.323Z,33.08
2022-10-18T22:49:41.007Z,33.25
2022-10-18T22:52:07.738Z,31.58
2022-10-18T22:54:34.420Z,31.90
2022-10-18T22:57:01.201Z,33.28
2022-10-18T22:59:27.807Z,35.03
2022-10-18T23:01:54.487Z,30.20
2022-10-18T23:04:21.112Z,31.73
2022-10-18T23:06:47.797Z,25.60
2022-10-18T23:09:14.450Z,24.55
2022-10-18T23:11:41.152Z,23.77
2022-10-18T23:14:07.929Z,24.05
2022-10-18T23:16:35.235Z,21.27
2022-10-18T23:19:01.932Z,21.67
2022-10-18T23:21:29.348Z,22.30
2022-10-18T23:23:57.159Z,23.38
2022-10-18T23:26:26.114Z,27.50
2022-10-18T23:28:54.036Z,30.92
2022-10-18T23:31:23.984Z,34.38
2022-10-18T23:33:53.165Z,25.40
2022-10-18T23:36:21.281Z,26.87
2022-10-18T23:38:48.064Z,24.13
2022-10-18T23:41:16.381Z,23.25
2022-10-18T23:43:43.864Z,22.27
2022-10-18T23:46:11.015Z,21.50
2022-10-18T23:48:38.165Z,28.35
2022-10-18T23:51:05.929Z,27.52
2022-10-18T23:53:33.658Z,26.35
2022-10-18T23:56:09.395Z,23.30
2022-10-18T23:58:37.498Z,29.38
